Terminal Aerodrome Forecast
Issued by NWS

Home | Current Version | Previous Version | Text Only | Print | Product List | Glossary On
Versions: 1 2 3 4 5 6 7 8 9 10 11 12 13 14 15 16 17
000
FTUS43 KEAX 160500
TAFSTJ
TAF
KSTJ 160532Z 1606/1706 31019G29KT P6SM OVC016
     FM161000 31016G26KT P6SM OVC025
     FM161900 32013KT P6SM SCT030
     FM170000 34008KT P6SM BKN025=

USA.gov is the U.S. government's official web portal to all federal, state and local government web resources and services.